Time;durP1;ratioP1;P1;durP2;ratioP2;P2;SDS_P1;SDS_P2;PMS_P1;PMS_P2;Temp;Humidity;BMP_temperature;BMP_pressure;BME280_temperature;BME280_humidity;BME280_pressure;Samples;Min_cycle;Max_cycle;Signal;HPM_P1;HPM_P2
2022/04/06 00:00:35;;;;;;;6.63;3.33;;;;;;;5.68;68.58;98869.06;5030660;28;20476;-55
2022/04/06 00:03:01;;;;;;;6.80;2.83;;;;;;;5.62;69.28;98860.53;5016310;28;20080;-57
2022/04/06 00:05:26;;;;;;;9.55;3.60;;;;;;;5.61;69.02;98859.69;5032125;28;20036;-57
2022/04/06 00:07:52;;;;;;;10.55;4.07;;;;;;;5.52;69.18;98856.47;5027804;28;20033;-56
2022/04/06 00:10:17;;;;;;;9.77;3.63;;;;;;;5.43;69.99;98868.00;5023652;28;20417;-57
2022/04/06 00:12:42;;;;;;;6.40;3.03;;;;;;;5.43;69.93;98870.59;5015800;28;20474;-58
2022/04/06 00:15:10;;;;;;;5.90;2.92;;;;;;;5.51;69.54;98863.44;5033031;28;20050;-57
2022/04/06 00:17:36;;;;;;;5.90;3.05;;;;;;;5.56;69.03;98871.13;5030644;28;20127;-57
2022/04/06 00:20:03;;;;;;;9.55;3.75;;;;;;;5.57;69.00;98862.41;5029073;28;20030;-56
2022/04/06 00:22:29;;;;;;;10.18;4.53;;;;;;;5.64;68.74;98859.63;5030361;28;20033;-57
2022/04/06 00:24:54;;;;;;;12.43;4.35;;;;;;;5.63;68.92;98864.88;5028086;28;20069;-56
2022/04/06 00:27:20;;;;;;;10.50;4.80;;;;;;;5.60;69.03;98862.34;5027653;28;20386;-58
2022/04/06 00:29:46;;;;;;;11.20;4.40;;;;;;;5.63;68.95;98863.13;5033830;28;20052;-57
2022/04/06 00:32:11;;;;;;;6.18;3.30;;;;;;;5.64;68.94;98859.63;5025481;28;20033;-57
2022/04/06 00:37:21;;;;;;;7.30;3.33;;;;;;;5.68;68.63;98865.63;5030507;28;20095;-57
2022/04/06 00:39:46;;;;;;;4.88;2.55;;;;;;;5.78;68.56;98861.00;5029308;28;20061;-58
2022/04/06 00:42:12;;;;;;;5.03;2.72;;;;;;;5.84;68.16;98860.84;5017948;28;20064;-57
2022/04/06 00:44:38;;;;;;;4.93;2.10;;;;;;;5.84;68.13;98866.06;5033648;28;20037;-58
2022/04/06 00:47:05;;;;;;;4.88;2.30;;;;;;;5.82;67.74;98867.84;5015887;28;20049;-56
2022/04/06 00:49:31;;;;;;;5.65;2.47;;;;;;;5.74;67.92;98870.66;5019449;28;20044;-59
2022/04/06 00:51:59;;;;;;;5.28;2.25;;;;;;;5.69;68.24;98870.78;5031193;28;20037;-57
2022/04/06 00:54:25;;;;;;;4.78;2.05;;;;;;;5.61;68.65;98879.69;5021966;28;20045;-57
2022/04/06 00:56:50;;;;;;;4.65;2.00;;;;;;;5.54;68.70;98870.31;5026235;28;20160;-56
2022/04/06 00:59:16;;;;;;;4.65;2.28;;;;;;;5.59;68.40;98871.91;5024784;28;20175;-57
2022/04/06 01:01:47;;;;;;;6.95;2.20;;;;;;;5.65;68.07;98876.97;5031153;28;20045;-58
2022/04/06 01:04:13;;;;;;;5.28;1.80;;;;;;;5.63;68.25;98881.38;5027853;28;20116;-57
2022/04/06 01:06:39;;;;;;;4.05;2.10;;;;;;;5.64;68.28;98885.69;5024609;28;20037;-57
2022/04/06 01:09:05;;;;;;;5.15;1.95;;;;;;;5.64;68.16;98880.47;5025911;28;20034;-58
2022/04/06 01:11:31;;;;;;;2.95;1.67;;;;;;;5.63;68.10;98876.16;5034136;28;20036;-57
2022/04/06 01:13:57;;;;;;;3.67;1.70;;;;;;;5.63;68.21;98878.75;5029058;28;20037;-56
2022/04/06 01:16:23;;;;;;;5.95;1.92;;;;;;;5.61;68.29;98885.75;5030770;28;20045;-55
2022/04/06 01:18:48;;;;;;;3.28;1.55;;;;;;;5.66;68.31;98893.44;5034512;28;20048;-57
2022/04/06 01:21:14;;;;;;;3.63;1.75;;;;;;;5.64;68.11;98883.06;5024415;28;20044;-57
2022/04/06 01:23:41;;;;;;;4.68;1.60;;;;;;;5.64;68.13;98896.09;5020232;28;20413;-56
2022/04/06 01:26:08;;;;;;;4.32;1.95;;;;;;;5.62;68.24;98900.47;5018159;28;20485;-58
2022/04/06 01:28:33;;;;;;;3.55;1.98;;;;;;;5.63;68.30;98902.22;5021767;28;20120;-56
2022/04/06 01:30:59;;;;;;;6.28;2.20;;;;;;;5.69;67.84;98896.84;5017774;28;20125;-57
2022/04/06 01:33:24;;;;;;;4.68;2.20;;;;;;;5.74;67.74;98901.06;5019875;28;20030;-57
2022/04/06 01:35:50;;;;;;;2.72;1.73;;;;;;;5.77;67.57;98903.59;5024893;28;20053;-57
2022/04/06 01:38:15;;;;;;;5.65;1.92;;;;;;;5.76;67.64;98896.69;5023999;28;20034;-57
2022/04/06 01:40:40;;;;;;;6.07;1.98;;;;;;;5.91;67.18;98898.91;5030072;28;20042;-57
2022/04/06 01:43:06;;;;;;;4.43;1.75;;;;;;;5.80;67.36;98900.94;5016532;28;20033;-57
2022/04/06 01:45:31;;;;;;;4.57;1.83;;;;;;;5.70;67.83;98900.28;5016649;28;20041;-55
2022/04/06 01:47:57;;;;;;;2.33;1.60;;;;;;;5.82;67.54;98904.34;5017416;28;20545;-57
2022/04/06 01:53:06;;;;;;;4.97;2.30;;;;;;;5.93;67.06;98913.63;5016748;28;20053;-55
2022/04/06 01:55:32;;;;;;;3.30;1.90;;;;;;;5.91;67.20;98904.97;5033406;28;20037;-58
2022/04/06 01:57:57;;;;;;;3.22;1.70;;;;;;;5.88;67.40;98914.63;5013204;28;20038;-56
2022/04/06 02:00:22;;;;;;;5.22;1.77;;;;;;;5.85;67.35;98910.34;5018892;28;20112;-57
2022/04/06 02:02:53;;;;;;;4.72;1.95;;;;;;;5.92;67.23;98911.91;5020501;28;20041;-56
2022/04/06 02:05:19;;;;;;;4.47;1.95;;;;;;;5.86;67.23;98906.81;5021298;28;20037;-57
2022/04/06 02:07:49;;;;;;;2.58;1.52;;;;;;;5.94;67.21;98909.25;5026734;28;20038;-57
2022/04/06 02:10:16;;;;;;;3.60;1.92;;;;;;;5.99;66.95;98912.63;5029775;28;20052;-57
2022/04/06 02:12:41;;;;;;;5.00;1.88;;;;;;;5.94;67.05;98906.66;5032019;28;20461;-56
2022/04/06 02:15:10;;;;;;;3.45;1.50;;;;;;;5.98;67.07;98913.50;5031389;28;20045;-58
2022/04/06 02:17:36;;;;;;;2.80;1.70;;;;;;;6.08;66.92;98909.75;5044387;28;20405;-57
2022/04/06 02:20:02;;;;;;;5.38;1.90;;;;;;;6.07;66.56;98923.72;5018335;28;20037;-57
2022/04/06 02:22:27;;;;;;;5.93;2.55;;;;;;;6.02;66.85;98928.16;5031729;28;20038;-57
2022/04/06 02:24:53;;;;;;;4.82;2.22;;;;;;;5.92;67.10;98926.72;5025513;28;20073;-56
2022/04/06 02:27:18;;;;;;;5.22;2.30;;;;;;;5.77;67.90;98925.31;5023809;28;20460;-56
2022/04/06 02:29:44;;;;;;;4.28;1.90;;;;;;;5.84;67.87;98932.09;5025757;28;20034;-55
2022/04/06 02:32:10;;;;;;;4.25;2.08;;;;;;;5.75;68.29;98928.88;5016293;28;20033;-57
2022/04/06 02:34:36;;;;;;;5.68;2.25;;;;;;;5.68;68.55;98934.22;5027822;28;20504;-57
2022/04/06 02:37:02;;;;;;;4.88;2.03;;;;;;;5.71;68.75;98927.25;5026087;28;20117;-56
2022/04/06 02:39:27;;;;;;;5.72;1.83;;;;;;;5.78;68.51;98926.16;5024669;28;20531;-57
2022/04/06 02:41:53;;;;;;;3.40;1.98;;;;;;;5.77;68.54;98924.47;5027079;28;20053;-58
2022/04/06 02:44:19;;;;;;;6.03;2.05;;;;;;;5.79;68.58;98930.50;5032729;28;20034;-57
2022/04/06 02:46:46;;;;;;;6.75;2.40;;;;;;;5.69;69.32;98935.94;5026271;28;20029;-58
2022/04/06 02:49:12;;;;;;;5.00;2.25;;;;;;;5.61;69.50;98927.44;5028659;28;20511;-56
2022/04/06 02:51:38;;;;;;;4.65;2.15;;;;;;;5.60;69.76;98930.94;5033909;28;20104;-55
2022/04/06 02:54:04;;;;;;;5.65;2.40;;;;;;;5.64;69.56;98929.97;5024459;28;20041;-57
2022/04/06 02:56:29;;;;;;;5.30;2.13;;;;;;;5.65;69.55;98933.44;5035240;28;20079;-55
2022/04/06 02:58:55;;;;;;;4.80;1.88;;;;;;;5.65;69.78;98936.91;5033012;28;20030;-57
2022/04/06 03:01:21;;;;;;;5.10;2.25;;;;;;;5.60;69.89;98940.53;5032638;28;20445;-56
2022/04/06 03:03:46;;;;;;;5.50;2.40;;;;;;;5.62;69.92;98938.72;5036102;28;20452;-53
2022/04/06 03:06:12;;;;;;;8.32;3.15;;;;;;;5.62;70.08;98936.97;5034885;28;20029;-55
2022/04/06 03:08:37;;;;;;;6.55;2.53;;;;;;;5.72;69.80;98944.56;5034926;28;20057;-56
2022/04/06 03:11:03;;;;;;;8.30;2.90;;;;;;;5.72;69.77;98942.81;5027256;28;20116;-56
2022/04/06 03:13:28;;;;;;;5.13;2.05;;;;;;;5.82;69.44;98946.03;5030828;28;20111;-57
2022/04/06 03:15:54;;;;;;;6.35;2.30;;;;;;;5.92;69.21;98947.56;5024112;28;20108;-56
2022/04/06 03:18:20;;;;;;;4.78;2.80;;;;;;;5.92;69.22;98943.22;5030711;28;20076;-56
2022/04/06 03:20:46;;;;;;;8.52;2.50;;;;;;;5.98;69.03;98946.53;5034803;28;20112;-56
2022/04/06 03:23:11;;;;;;;7.10;2.70;;;;;;;5.95;68.90;98957.06;5025886;28;20487;-55
2022/04/06 03:25:36;;;;;;;5.07;2.50;;;;;;;5.92;68.96;98948.41;5036407;28;20436;-53
2022/04/06 03:28:02;;;;;;;5.15;2.85;;;;;;;5.83;69.25;98950.38;5027606;28;20080;-55
2022/04/06 03:30:27;;;;;;;3.88;2.50;;;;;;;5.87;69.28;98959.84;5029403;28;20466;-55
2022/04/06 03:32:53;;;;;;;8.40;3.10;;;;;;;5.93;68.96;98946.66;5024844;28;20075;-55
2022/04/06 03:35:18;;;;;;;6.00;3.17;;;;;;;5.87;68.90;98947.66;5025510;28;20155;-57
2022/04/06 03:37:44;;;;;;;7.88;4.28;;;;;;;5.90;68.94;98957.13;5026358;28;20022;-57
2022/04/06 03:40:10;;;;;;;5.90;3.40;;;;;;;5.90;68.89;98950.19;5023023;28;20497;-57
2022/04/06 03:42:35;;;;;;;6.45;3.63;;;;;;;5.88;68.85;98945.91;5024134;28;20123;-55
2022/04/06 03:45:02;;;;;;;7.30;4.35;;;;;;;5.89;68.81;98952.81;5017721;28;20114;-57
2022/04/06 03:47:30;;;;;;;10.80;5.63;;;;;;;5.84;68.93;98949.47;5031984;28;20523;-56
2022/04/06 03:49:55;;;;;;;8.45;4.78;;;;;;;5.82;68.94;98949.50;5026430;28;20038;-54
2022/04/06 03:52:20;;;;;;;6.82;3.45;;;;;;;5.77;69.10;98953.13;5029245;28;20036;-58
2022/04/06 03:54:46;;;;;;;8.70;3.97;;;;;;;5.78;69.15;98952.22;5032898;28;20504;-53
2022/04/06 03:57:12;;;;;;;7.63;4.20;;;;;;;5.74;69.25;98961.00;5034712;28;20548;-57
2022/04/06 03:59:38;;;;;;;8.85;4.50;;;;;;;5.69;69.27;98956.78;5020784;28;20030;-55
2022/04/06 04:02:04;;;;;;;8.10;4.18;;;;;;;5.68;69.37;98964.66;5022485;28;20034;-57
2022/04/06 04:04:29;;;;;;;7.13;4.72;;;;;;;5.66;69.35;98956.88;5017458;28;20034;-55
2022/04/06 04:06:55;;;;;;;7.60;3.80;;;;;;;5.65;69.49;98951.69;5032607;28;20370;-57
2022/04/06 04:09:21;;;;;;;6.22;3.60;;;;;;;5.68;69.41;98944.66;5023347;28;20473;-58
2022/04/06 04:11:46;;;;;;;7.90;4.38;;;;;;;5.67;69.52;98955.13;5020371;28;20080;-57
2022/04/06 04:14:11;;;;;;;7.10;4.03;;;;;;;5.69;69.47;98951.56;5019328;28;20122;-56
2022/04/06 04:16:37;;;;;;;12.65;5.28;;;;;;;5.69;69.63;98954.16;5033510;28;20041;-57
2022/04/06 04:19:02;;;;;;;10.25;4.95;;;;;;;5.72;69.40;98955.00;5029773;28;20554;-56
2022/04/06 04:21:34;;;;;;;7.75;4.70;;;;;;;5.73;69.48;98954.09;5016162;28;20113;-56
2022/04/06 04:24:04;;;;;;;14.43;8.45;;;;;;;5.72;69.59;98960.22;5021868;28;20041;-57
2022/04/06 04:26:31;;;;;;;217.15;90.53;;;;;;;5.76;69.43;98962.69;5032506;28;20076;-55
2022/04/06 04:28:57;;;;;;;61.03;26.98;;;;;;;5.80;69.39;98958.28;5018258;28;20046;-57
2022/04/06 04:31:23;;;;;;;86.45;33.25;;;;;;;5.80;69.33;98959.13;5021927;28;20041;-56
2022/04/06 04:33:49;;;;;;;97.63;45.92;;;;;;;5.88;69.06;98954.56;5028743;28;20061;-57
2022/04/06 04:36:16;;;;;;;147.18;66.45;;;;;;;5.93;68.86;98955.34;5024290;28;20128;-56
2022/04/06 04:38:42;;;;;;;72.35;40.55;;;;;;;6.02;68.73;98961.22;5019595;28;20096;-57
2022/04/06 04:41:08;;;;;;;55.97;36.08;;;;;;;6.08;68.46;98956.72;5026790;28;20080;-57
2022/04/06 04:43:34;;;;;;;30.95;20.42;;;;;;;6.13;68.47;98960.03;5033680;28;20037;-58
2022/04/06 04:46:00;;;;;;;26.42;18.67;;;;;;;6.22;68.11;98960.69;5017335;28;20074;-56
2022/04/06 04:48:25;;;;;;;27.25;21.10;;;;;;;6.30;68.10;98962.19;5029914;28;20072;-57
2022/04/06 04:50:51;;;;;;;25.13;21.15;;;;;;;6.31;68.03;98963.06;5031755;28;20031;-55
2022/04/06 04:53:16;;;;;;;23.38;19.80;;;;;;;6.34;67.98;98958.63;5024376;28;20044;-54
2022/04/06 04:55:41;;;;;;;16.33;12.63;;;;;;;6.38;67.91;98957.66;5027101;28;20061;-56
2022/04/06 04:58:07;;;;;;;16.00;13.18;;;;;;;6.44;67.75;98959.22;5034580;28;20030;-54
2022/04/06 05:00:33;;;;;;;17.48;13.60;;;;;;;6.53;67.40;98961.56;5022168;28;20038;-55
2022/04/06 05:02:58;;;;;;;111.28;67.80;;;;;;;6.63;67.18;98964.81;5022447;28;20037;-54
2022/04/06 05:05:24;;;;;;;66.22;40.75;;;;;;;6.76;66.93;98962.69;5028865;28;20034;-55
2022/04/06 05:07:50;;;;;;;78.45;52.28;;;;;;;6.84;66.71;98963.31;5034653;28;20389;-55
2022/04/06 05:10:15;;;;;;;62.42;43.00;;;;;;;6.95;66.30;98963.88;5032115;28;20033;-55
2022/04/06 05:12:41;;;;;;;36.20;25.30;;;;;;;6.96;66.37;98967.34;5029117;28;20095;-55
2022/04/06 05:15:07;;;;;;;40.33;31.63;;;;;;;6.96;66.29;98973.41;5016722;28;20037;-56
2022/04/06 05:17:34;;;;;;;18.65;13.45;;;;;;;6.99;66.20;98969.88;5024021;28;20030;-56
2022/04/06 05:19:59;;;;;;;21.52;14.45;;;;;;;7.01;66.19;98976.72;5025394;28;20048;-54
2022/04/06 05:22:25;;;;;;;26.75;16.17;;;;;;;7.10;65.93;98973.00;5031249;28;20033;-56
2022/04/06 05:24:52;;;;;;;14.70;8.80;;;;;;;7.10;65.73;98968.66;5020923;28;20112;-57
2022/04/06 05:27:17;;;;;;;12.45;7.30;;;;;;;7.09;65.84;98976.50;5027066;28;20056;-56
2022/04/06 05:29:43;;;;;;;12.70;8.73;;;;;;;7.08;65.85;98980.88;5015842;28;20030;-56
2022/04/06 05:32:08;;;;;;;12.77;8.00;;;;;;;7.09;65.82;98977.38;5031823;28;20057;-56
2022/04/06 05:34:35;;;;;;;7.63;5.80;;;;;;;7.09;65.78;98982.59;5031530;28;20072;-55
2022/04/06 05:37:01;;;;;;;11.88;6.47;;;;;;;7.15;65.53;98981.56;5021939;28;20034;-56
2022/04/06 05:39:27;;;;;;;9.40;5.82;;;;;;;7.13;65.66;98976.38;5021541;28;20421;-56
2022/04/06 05:41:52;;;;;;;8.90;5.00;;;;;;;7.09;65.80;98992.19;5018914;28;20038;-57
2022/04/06 05:44:18;;;;;;;9.95;6.45;;;;;;;7.13;65.57;98983.34;5013310;28;20529;-52
2022/04/06 05:46:44;;;;;;;9.00;5.28;;;;;;;7.20;65.57;98981.41;5024750;28;20033;-56
2022/04/06 05:49:09;;;;;;;6.72;4.07;;;;;;;7.24;65.43;98981.28;5031949;28;20044;-54
2022/04/06 05:51:35;;;;;;;8.35;4.38;;;;;;;7.33;65.22;98991.44;5016844;28;20445;-55
2022/04/06 05:54:02;;;;;;;8.52;4.57;;;;;;;7.32;65.22;98994.13;5021096;28;20041;-56
2022/04/06 05:56:28;;;;;;;8.02;4.20;;;;;;;7.29;65.34;98994.19;5017099;28;20033;-53
2022/04/06 05:58:54;;;;;;;7.05;4.50;;;;;;;7.35;65.06;98994.03;5027327;28;20034;-54
2022/04/06 06:01:19;;;;;;;7.70;4.65;;;;;;;7.36;65.18;98991.34;5022795;28;20043;-54
2022/04/06 06:03:45;;;;;;;9.95;5.97;;;;;;;7.40;65.12;98998.19;5017885;28;20470;-56
2022/04/06 06:06:10;;;;;;;8.75;5.47;;;;;;;7.36;65.10;99001.81;5013828;28;20109;-57
2022/04/06 06:08:36;;;;;;;12.15;6.07;;;;;;;7.35;65.17;99009.72;5020708;28;20042;-54
2022/04/06 06:11:02;;;;;;;10.07;5.38;;;;;;;7.43;65.03;99009.47;5022738;28;20091;-54
2022/04/06 06:13:27;;;;;;;9.80;5.53;;;;;;;7.43;65.02;99009.47;5014814;28;20041;-56
2022/04/06 06:15:53;;;;;;;11.88;5.97;;;;;;;7.45;65.01;99005.03;5021296;28;20050;-56
2022/04/06 06:18:18;;;;;;;9.05;4.60;;;;;;;7.47;65.17;99004.09;5026755;28;20500;-55
2022/04/06 06:20:43;;;;;;;10.10;5.57;;;;;;;7.63;64.79;99010.56;5015999;28;20465;-56
2022/04/06 06:23:09;;;;;;;35.17;16.30;;;;;;;7.72;64.48;99012.03;5017898;28;20037;-56
2022/04/06 06:25:34;;;;;;;67.65;26.80;;;;;;;7.83;64.25;99011.69;5032420;28;20033;-55
2022/04/06 06:28:00;;;;;;;84.03;31.48;;;;;;;7.98;63.99;99008.59;5027781;28;20393;-55
2022/04/06 06:30:27;;;;;;;88.15;37.25;;;;;;;7.98;64.02;99015.53;5021031;28;20041;-56
2022/04/06 06:32:54;;;;;;;40.33;18.90;;;;;;;8.09;63.74;99003.81;5017618;28;20579;-55
2022/04/06 06:35:20;;;;;;;23.15;13.07;;;;;;;8.17;63.67;99014.03;5012965;28;20524;-57
2022/04/06 06:37:50;;;;;;;14.38;7.90;;;;;;;8.21;63.61;99007.78;5013684;28;20030;-57
2022/04/06 06:40:21;;;;;;;16.75;10.40;;;;;;;8.28;63.56;99005.84;5022189;28;20508;-57
2022/04/06 06:42:46;;;;;;;18.08;9.32;;;;;;;8.38;63.42;99002.91;5023378;28;20039;-55
2022/04/06 06:45:12;;;;;;;19.80;11.02;;;;;;;8.57;62.84;99007.47;5023240;28;20030;-58
2022/04/06 06:47:40;;;;;;;15.52;9.35;;;;;;;8.48;63.16;99006.03;5019971;28;20112;-58
2022/04/06 06:50:07;;;;;;;15.20;10.35;;;;;;;8.63;62.91;99013.34;5023413;28;20034;-58
2022/04/06 06:52:34;;;;;;;12.18;8.00;;;;;;;8.74;62.72;99001.66;5025463;28;20051;-57
2022/04/06 06:55:01;;;;;;;11.10;6.07;;;;;;;8.82;62.67;99002.22;5022874;28;20377;-58
2022/04/06 06:57:26;;;;;;;8.18;5.03;;;;;;;8.93;62.41;99007.06;5022714;28;20104;-56
2022/04/06 06:59:52;;;;;;;6.65;4.55;;;;;;;8.96;61.89;99004.34;5029646;28;20115;-59
2022/04/06 07:02:17;;;;;;;9.25;5.28;;;;;;;9.04;61.92;99002.28;5018875;28;20100;-59
2022/04/06 07:04:42;;;;;;;8.32;5.75;;;;;;;9.13;61.94;99004.53;5017134;28;20025;-59
2022/04/06 07:07:08;;;;;;;10.95;6.15;;;;;;;9.18;61.90;98999.16;5033137;28;20034;-57
2022/04/06 07:09:33;;;;;;;9.65;5.32;;;;;;;9.23;61.52;99005.06;5028777;28;20385;-57
2022/04/06 07:11:58;;;;;;;7.22;4.85;;;;;;;9.15;61.20;99002.75;5013524;28;20041;-56
2022/04/06 07:14:25;;;;;;;7.97;4.60;;;;;;;9.23;61.06;99003.31;5013449;28;20505;-57
2022/04/06 07:16:50;;;;;;;6.43;4.20;;;;;;;9.17;60.93;98998.28;5027003;28;20046;-55
2022/04/06 07:19:16;;;;;;;7.35;4.00;;;;;;;9.19;60.94;98998.25;5029668;28;20092;-56
2022/04/06 07:21:42;;;;;;;6.43;4.22;;;;;;;9.17;60.88;99000.06;5030378;28;20029;-57
2022/04/06 07:24:07;;;;;;;6.55;3.33;;;;;;;8.78;61.12;98996.25;5030660;28;20045;-58
2022/04/06 07:26:33;;;;;;;7.05;3.88;;;;;;;8.70;61.63;98989.56;5018687;28;20130;-58
2022/04/06 07:28:59;;;;;;;9.30;4.00;;;;;;;8.65;61.61;98987.09;5019715;28;20072;-58
2022/04/06 07:31:25;;;;;;;8.02;3.97;;;;;;;8.90;61.28;98976.59;5020480;28;20474;-57
2022/04/06 07:33:50;;;;;;;5.15;3.15;;;;;;;9.10;60.66;98978.47;5030607;28;20077;-54
2022/04/06 07:36:17;;;;;;;5.93;3.15;;;;;;;9.33;60.31;98986.28;5029811;28;20083;-56
2022/04/06 07:38:43;;;;;;;4.75;3.10;;;;;;;9.52;59.83;98983.81;5033419;28;20057;-56
2022/04/06 07:41:08;;;;;;;5.07;3.38;;;;;;;9.81;59.24;98987.91;5019925;28;20034;-56
2022/04/06 07:43:34;;;;;;;4.10;2.63;;;;;;;9.93;58.72;98991.78;5021541;28;20040;-56
2022/04/06 07:45:59;;;;;;;4.15;2.47;;;;;;;10.10;58.63;98994.59;5030780;28;20437;-59
2022/04/06 07:48:27;;;;;;;8.70;3.38;;;;;;;10.24;58.36;99001.00;5027667;28;20041;-58
2022/04/06 07:50:53;;;;;;;9.73;3.78;;;;;;;10.24;58.26;98996.63;5036142;28;20457;-59
2022/04/06 07:53:19;;;;;;;6.50;3.95;;;;;;;10.31;58.31;98992.84;5030592;28;20034;-56
2022/04/06 07:55:46;;;;;;;7.50;4.00;;;;;;;10.35;58.33;98993.56;5034379;28;20087;-57
2022/04/06 07:58:12;;;;;;;6.05;3.33;;;;;;;10.43;58.04;98993.25;5030959;28;20401;-57
2022/04/06 08:00:38;;;;;;;5.18;3.13;;;;;;;10.42;57.82;98987.16;5022778;28;20041;-58
2022/04/06 08:03:03;;;;;;;5.80;3.35;;;;;;;10.33;58.04;98995.41;5030852;28;20053;-57
2022/04/06 08:05:28;;;;;;;6.95;4.20;;;;;;;10.28;58.13;98986.88;5019151;28;20142;-58
2022/04/06 08:07:54;;;;;;;4.70;2.90;;;;;;;10.29;58.29;98983.31;5022096;28;20608;-57
2022/04/06 08:10:21;;;;;;;4.90;2.75;;;;;;;10.34;58.03;98984.00;5018841;28;20033;-58
2022/04/06 08:12:47;;;;;;;4.80;2.72;;;;;;;10.49;57.84;98985.97;5025939;28;20037;-57
2022/04/06 08:15:14;;;;;;;6.78;3.60;;;;;;;10.57;57.53;98991.75;5033441;28;20041;-57
2022/04/06 08:17:45;;;;;;;5.75;3.53;;;;;;;10.62;57.50;98995.94;5025335;28;20099;-58
2022/04/06 08:20:12;;;;;;;5.07;3.03;;;;;;;10.53;57.58;99000.69;5018234;28;20477;-58
2022/04/06 08:22:38;;;;;;;5.32;3.35;;;;;;;10.57;57.63;98998.75;5016840;28;20124;-57
2022/04/06 08:25:04;;;;;;;5.05;3.47;;;;;;;10.59;57.93;99000.41;5032068;28;20042;-56
2022/04/06 08:27:31;;;;;;;5.30;3.13;;;;;;;10.74;57.26;98990.16;5028632;28;20048;-55
2022/04/06 08:29:56;;;;;;;5.28;2.95;;;;;;;10.77;56.73;98992.63;5035070;28;20132;-56
2022/04/06 08:32:22;;;;;;;6.63;3.22;;;;;;;10.82;56.71;98988.03;5021676;28;20468;-56
2022/04/06 08:34:47;;;;;;;5.95;3.55;;;;;;;10.94;56.39;98987.47;5024643;28;20045;-54
2022/04/06 08:37:13;;;;;;;5.80;3.70;;;;;;;11.04;56.35;98985.28;5032206;28;20445;-56
2022/04/06 08:39:38;;;;;;;8.65;5.97;;;;;;;11.08;56.08;98979.78;5028818;28;20057;-57
2022/04/06 08:42:04;;;;;;;9.70;6.30;;;;;;;11.06;56.28;98979.03;5018463;28;20034;-57
2022/04/06 08:44:30;;;;;;;7.28;5.32;;;;;;;10.98;56.19;98978.53;5032064;28;20045;-57
2022/04/06 08:47:02;;;;;;;10.20;7.55;;;;;;;10.92;56.40;98975.31;5030434;28;20029;-57
2022/04/06 08:49:28;;;;;;;9.43;6.35;;;;;;;10.93;56.59;98980.53;5016008;28;20029;-57
2022/04/06 08:51:55;;;;;;;7.03;4.25;;;;;;;10.94;56.48;98971.72;5015038;28;20128;-57
2022/04/06 08:54:20;;;;;;;5.72;3.70;;;;;;;10.93;56.30;98970.00;5025324;28;20041;-56
2022/04/06 08:56:46;;;;;;;6.15;3.70;;;;;;;10.93;56.42;98971.75;5032270;28;20384;-54
2022/04/06 08:59:12;;;;;;;6.65;4.13;;;;;;;10.96;56.22;98964.59;5020053;28;20153;-57
2022/04/06 09:01:37;;;;;;;11.23;4.85;;;;;;;11.03;56.13;98973.06;5026636;28;20140;-57
2022/04/06 09:04:03;;;;;;;7.03;4.10;;;;;;;10.99;56.60;98971.50;5018312;28;20470;-56
2022/04/06 09:06:32;;;;;;;7.50;4.40;;;;;;;11.00;56.55;98971.41;5016400;28;20034;-56
2022/04/06 09:08:57;;;;;;;10.18;5.97;;;;;;;10.98;56.74;98959.28;5027036;28;20389;-57
2022/04/06 09:11:23;;;;;;;6.35;4.43;;;;;;;10.88;57.15;98958.00;5030643;28;20112;-57
2022/04/06 09:14:00;;;;;;;5.28;3.90;;;;;;;10.83;57.09;98953.78;5025756;28;20040;-57
2022/04/06 09:16:31;;;;;;;5.57;3.65;;;;;;;10.75;57.29;98955.06;5025031;28;20064;-54
2022/04/06 09:19:12;;;;;;;4.88;3.00;;;;;;;10.60;57.35;98956.59;5019304;28;20041;-56
2022/04/06 09:21:40;;;;;;;5.32;3.72;;;;;;;10.65;57.58;98945.88;5017993;28;20040;-55
2022/04/06 09:24:12;;;;;;;3.97;3.50;;;;;;;10.64;57.86;98952.06;5020654;28;20042;-59
2022/04/06 09:26:37;;;;;;;9.27;5.22;;;;;;;10.57;57.91;98944.47;5020357;28;20041;-55
2022/04/06 09:29:03;;;;;;;5.80;4.20;;;;;;;10.64;57.92;98949.44;5024507;28;20037;-56
2022/04/06 09:31:38;;;;;;;5.30;3.47;;;;;;;10.61;58.16;98934.66;5016490;28;20033;-58
2022/04/06 09:34:04;;;;;;;6.35;3.63;;;;;;;10.75;57.76;98936.69;5014529;28;20025;-58
2022/04/06 09:36:31;;;;;;;7.55;3.90;;;;;;;10.84;57.81;98933.63;5014727;28;20445;-58
2022/04/06 09:38:57;;;;;;;4.57;3.58;;;;;;;10.75;57.88;98929.63;5014814;28;20104;-57
2022/04/06 09:41:23;;;;;;;5.45;3.92;;;;;;;10.67;58.23;98926.50;5019538;28;20057;-56
2022/04/06 09:43:52;;;;;;;6.85;4.60;;;;;;;10.78;58.31;98923.41;5033127;28;20029;-57
2022/04/06 09:49:18;;;;;;;5.50;3.43;;;;;;;11.07;57.44;98909.75;5016804;28;20054;-56
2022/04/06 09:51:46;;;;;;;6.50;3.95;;;;;;;11.10;57.17;98908.78;5020053;28;20485;-56
2022/04/06 09:54:12;;;;;;;7.18;3.83;;;;;;;10.99;57.46;98911.91;5019535;28;20034;-56
2022/04/06 09:56:40;;;;;;;7.53;4.22;;;;;;;10.94;57.57;98913.91;5033710;28;20123;-57
2022/04/06 09:59:07;;;;;;;6.05;4.03;;;;;;;10.95;57.61;98902.44;5024701;28;20117;-59
2022/04/06 10:01:35;;;;;;;7.07;4.38;;;;;;;11.02;57.74;98900.41;5030335;28;20033;-59
2022/04/06 10:04:09;;;;;;;9.30;4.38;;;;;;;10.79;57.89;98904.09;5032862;28;20556;-58
2022/04/06 10:06:37;;;;;;;6.70;3.90;;;;;;;10.73;58.14;98904.34;5025654;28;20030;-58
2022/04/06 10:09:06;;;;;;;7.63;4.93;;;;;;;10.59;58.61;98905.84;5025902;28;20037;-58
2022/04/06 10:11:33;;;;;;;8.65;5.95;;;;;;;10.44;58.90;98892.53;5018604;28;20038;-56
2022/04/06 10:14:00;;;;;;;8.27;5.28;;;;;;;10.30;59.21;98899.28;5022879;28;20749;-56
2022/04/06 10:16:26;;;;;;;8.10;4.95;;;;;;;10.28;59.52;98897.63;5025317;28;20034;-56
2022/04/06 10:18:53;;;;;;;9.30;5.78;;;;;;;10.21;59.54;98888.28;5026387;28;20491;-57
2022/04/06 10:21:30;;;;;;;9.85;6.18;;;;;;;10.26;59.55;98894.22;5015626;28;20038;-57
2022/04/06 10:24:24;;;;;;;8.88;6.63;;;;;;;10.27;59.72;98888.03;5022513;28;20088;-55
2022/04/06 10:27:11;;;;;;;15.02;8.90;;;;;;;10.39;59.52;98878.78;5021281;28;20064;-56
2022/04/06 10:30:11;;;;;;;13.45;7.82;;;;;;;10.38;59.77;98888.44;5032897;28;20133;-54
2022/04/06 10:32:40;;;;;;;11.40;7.05;;;;;;;10.40;59.52;98873.44;5030951;28;20092;-56
2022/04/06 10:35:24;;;;;;;9.10;5.55;;;;;;;10.38;59.75;98877.94;5032875;28;20121;-55
2022/04/06 10:37:56;;;;;;;8.75;5.75;;;;;;;10.36;59.89;98880.59;5018766;28;20037;-57
2022/04/06 10:40:23;;;;;;;5.95;4.25;;;;;;;10.35;59.92;98873.66;5021737;28;20049;-55
2022/04/06 10:42:50;;;;;;;4.88;3.67;;;;;;;10.33;60.09;98866.75;5016200;28;20092;-57
2022/04/06 10:45:24;;;;;;;6.60;4.50;;;;;;;10.29;60.74;98855.56;5014229;28;20049;-55
2022/04/06 10:48:16;;;;;;;6.22;4.20;;;;;;;10.35;61.02;98857.06;5030661;28;20049;-57
2022/04/06 10:50:49;;;;;;;8.43;6.05;;;;;;;10.37;60.49;98852.56;5021567;28;20033;-55
2022/04/06 10:53:18;;;;;;;13.82;8.00;;;;;;;10.40;60.67;98846.34;5013478;28;20030;-57
2022/04/06 10:56:06;;;;;;;8.38;5.47;;;;;;;10.37;61.33;98842.06;5013570;28;20351;-57
2022/04/06 10:58:53;;;;;;;7.68;5.95;;;;;;;10.33;61.37;98843.13;5013548;28;20041;-58
2022/04/06 11:01:26;;;;;;;5.85;4.22;;;;;;;10.34;61.13;98829.09;5022082;28;20034;-57
2022/04/06 11:03:57;;;;;;;6.67;4.77;;;;;;;10.19;61.93;98824.50;5033215;28;20040;-58
2022/04/06 11:06:40;;;;;;;8.68;6.75;;;;;;;10.12;62.46;98835.25;5020125;28;20180;-54
2022/04/06 11:12:28;;;;;;;8.23;6.43;;;;;;;10.06;62.55;98830.31;5033769;28;20546;-57
2022/04/06 11:14:53;;;;;;;11.47;9.17;;;;;;;10.13;62.43;98846.59;5034897;28;20030;-58
2022/04/06 11:17:42;;;;;;;10.27;7.75;;;;;;;10.11;63.13;98840.59;5024437;28;20030;-57
2022/04/06 11:20:18;;;;;;;9.85;7.57;;;;;;;10.14;62.62;98843.09;5027501;28;20511;-58
2022/04/06 11:22:50;;;;;;;10.63;7.45;;;;;;;10.24;62.96;98838.25;5036474;28;20029;-59
2022/04/06 11:25:22;;;;;;;9.48;7.55;;;;;;;10.27;62.65;98827.66;5036435;28;20037;-58
2022/04/06 11:27:49;;;;;;;8.45;6.40;;;;;;;10.38;62.47;98830.66;5026016;28;20057;-57
2022/04/06 11:30:16;;;;;;;12.70;8.65;;;;;;;10.42;62.43;98826.97;5017882;28;20077;-58
2022/04/06 11:33:03;;;;;;;30.75;17.67;;;;;;;10.47;62.70;98822.34;5016716;28;20099;-56
2022/04/06 11:35:33;;;;;;;33.33;15.98;;;;;;;10.39;62.68;98819.25;5017984;28;20037;-58
2022/04/06 11:37:59;;;;;;;37.40;17.13;;;;;;;10.44;62.40;98814.63;5028021;28;20468;-57
2022/04/06 11:40:27;;;;;;;50.58;24.13;;;;;;;10.43;62.59;98807.66;5031944;28;20077;-58
2022/04/06 11:43:05;;;;;;;54.08;26.40;;;;;;;10.54;62.98;98801.94;5029511;28;20033;-57
2022/04/06 11:45:47;;;;;;;42.22;23.30;;;;;;;10.62;62.76;98793.69;5017457;28;20481;-57
2022/04/06 11:48:14;;;;;;;50.13;27.03;;;;;;;10.72;62.49;98792.31;5030870;28;20033;-59